KMJX/MJX METAR and TAF weather

Enter ICAO airport designator
Station Type Date Time Source
KMJX METAR 2019/02/21 15:56 UTC NOAA

KMJX 211556Z AUTO 30014KT 10SM CLR 08/04 A3001 RMK AO2 SLP168 T00780039


Station Type Date Time Source
KMJX Decoded METAR 2019/02/21 15:56 UTC NOAA

Station name not available
Feb 21, 2019 - 10:56 AM EST / 2019.02.21 1556 UTC
Wind: from the WNW (300 degrees) at 16 MPH (14 KT):0
Visibility: 10 mile(s):0
Sky conditions: clear
Temperature: 46.0 F (7.8 C)
Dew Point: 39.0 F (3.9 C)
Relative Humidity: 76%
Pressure (altimeter): 30.01 in. Hg (1016 hPa)
ob: KMJX 211556Z AUTO 30014KT 10SM CLR 08/04 A3001 RMK AO2 SLP168 T00780039
cycle: 16

Station Type Date Time Source
KMJX TAF UTC NOAA

Error!


Example: see airport list